createdAt,value
2018-01-10T00:01:45.279Z,31.87
2018-01-10T00:04:12.711Z,28.73
2018-01-10T00:06:40.131Z,25.87
2018-01-10T00:09:07.547Z,26.53
2018-01-10T00:11:34.967Z,31.70
2018-01-10T00:14:02.424Z,31.40
2018-01-10T00:16:29.817Z,29.40
2018-01-10T00:18:57.230Z,28.63
2018-01-10T00:21:25.683Z,28.33
2018-01-10T00:23:53.633Z,27.17
2018-01-10T00:26:21.050Z,25.23
2018-01-10T00:28:48.463Z,24.30
2018-01-10T00:31:15.889Z,26.07
2018-01-10T00:33:43.922Z,26.97
2018-01-10T00:36:12.210Z,26.13
2018-01-10T00:38:39.767Z,28.27
2018-01-10T00:41:07.195Z,26.63
2018-01-10T00:43:34.615Z,27.67
2018-01-10T00:46:02.039Z,25.83
2018-01-10T00:48:29.798Z,25.80
2018-01-10T00:50:57.669Z,25.53
2018-01-10T00:53:25.092Z,25.30
2018-01-10T00:55:52.523Z,24.40
2018-01-10T00:58:19.934Z,25.33
2018-01-10T01:00:47.361Z,26.63
2018-01-10T01:03:14.779Z,25.43
2018-01-10T01:05:42.199Z,26.67
2018-01-10T01:08:10.378Z,24.70
2018-01-10T01:10:37.812Z,25.27
2018-01-10T01:13:05.230Z,24.93
2018-01-10T01:15:32.659Z,26.83
2018-01-10T01:18:00.071Z,25.20
2018-01-10T01:20:27.498Z,26.40
2018-01-10T01:22:54.920Z,27.00
2018-01-10T01:25:22.881Z,25.80
2018-01-10T01:27:50.578Z,26.47
2018-01-10T01:30:18.544Z,24.83
2018-01-10T01:32:45.954Z,25.43
2018-01-10T01:35:14.150Z,25.83
2018-01-10T01:37:41.566Z,26.40
2018-01-10T01:40:09.203Z,25.27
2018-01-10T01:42:36.626Z,25.90
2018-01-10T01:45:04.056Z,23.83
2018-01-10T01:47:31.471Z,23.47
2018-01-10T01:49:58.894Z,24.57
2018-01-10T01:52:26.887Z,26.70
2018-01-10T01:54:54.702Z,26.33
2018-01-10T01:57:22.123Z,27.30
2018-01-10T01:59:49.543Z,26.13
2018-01-10T02:02:16.971Z,25.23
2018-01-10T02:04:44.391Z,26.37
2018-01-10T02:07:28.771Z,27.00
2018-01-10T02:09:56.216Z,26.60
2018-01-10T02:12:23.640Z,26.70
2018-01-10T02:14:51.782Z,26.33
2018-01-10T02:17:19.972Z,25.10
2018-01-10T02:19:47.392Z,24.90
2018-01-10T02:22:14.841Z,25.83
2018-01-10T02:24:42.238Z,24.80
2018-01-10T02:27:09.940Z,23.67
2018-01-10T02:29:37.555Z,22.77
2018-01-10T02:32:05.744Z,23.47
2018-01-10T02:34:33.173Z,23.20
2018-01-10T02:37:01.375Z,23.37
2018-01-10T02:39:28.790Z,22.07
2018-01-10T02:41:56.484Z,23.43
2018-01-10T02:44:24.271Z,22.33
2018-01-10T02:46:52.439Z,21.13
2018-01-10T02:49:19.854Z,22.50
2018-01-10T02:51:48.094Z,21.37
2018-01-10T02:54:16.054Z,21.30
2018-01-10T02:56:43.487Z,21.13
2018-01-10T02:59:10.903Z,20.70
2018-01-10T03:01:39.830Z,19.53
2018-01-10T03:04:07.250Z,20.00
2018-01-10T03:06:34.939Z,19.70
2018-01-10T03:09:03.149Z,18.50
2018-01-10T03:11:30.567Z,17.77
2018-01-10T03:13:58.751Z,17.03
2018-01-10T03:16:26.942Z,16.13
2018-01-10T03:18:54.363Z,17.10
2018-01-10T03:21:21.907Z,16.20
2018-01-10T03:23:49.443Z,16.00
2018-01-10T03:26:18.126Z,16.47
2018-01-10T03:28:45.553Z,16.40
2018-01-10T03:31:12.988Z,15.73
2018-01-10T03:33:41.170Z,15.43
2018-01-10T03:36:09.357Z,15.53
2018-01-10T03:38:37.343Z,14.47
2018-01-10T03:41:04.770Z,16.00
2018-01-10T03:43:35.400Z,15.57
2018-01-10T03:46:03.634Z,15.37
2018-01-10T03:48:31.063Z,15.53
2018-01-10T03:50:58.479Z,14.87
2018-01-10T03:53:26.667Z,16.33
2018-01-10T03:56:11.612Z,14.37
2018-01-10T03:58:39.040Z,15.50
2018-01-10T04:01:06.903Z,15.63
2018-01-10T04:03:34.330Z,15.30
2018-01-10T04:06:01.743Z,15.13
2018-01-10T04:08:29.897Z,14.67
2018-01-10T04:10:57.327Z,15.10
2018-01-10T04:13:24.754Z,15.73
2018-01-10T04:15:52.943Z,14.80
2018-01-10T04:18:20.371Z,14.63
2018-01-10T04:20:47.790Z,14.50
2018-01-10T04:23:15.525Z,15.67
2018-01-10T04:25:42.941Z,14.77
2018-01-10T04:28:10.363Z,14.20
2018-01-10T04:30:37.778Z,13.70
2018-01-10T04:33:06.738Z,13.53
2018-01-10T04:35:36.697Z,13.57
2018-01-10T04:38:04.115Z,13.23
2018-01-10T04:40:31.550Z,13.30
2018-01-10T04:42:59.367Z,13.43
2018-01-10T04:45:27.602Z,12.83
2018-01-10T04:47:55.009Z,12.63
2018-01-10T04:50:22.427Z,12.50
2018-01-10T04:52:49.842Z,12.13
2018-01-10T04:55:17.270Z,12.73
2018-01-10T04:57:44.687Z,11.83
2018-01-10T05:00:12.883Z,12.83
2018-01-10T05:02:40.718Z,13.03
2018-01-10T05:05:08.666Z,12.83
2018-01-10T05:07:36.088Z,12.43
2018-01-10T05:10:18.823Z,12.20
2018-01-10T05:12:46.243Z,12.20
2018-01-10T05:15:16.083Z,13.10
2018-01-10T05:17:44.073Z,11.90
2018-01-10T05:20:11.494Z,12.67
2018-01-10T05:22:40.091Z,13.27
2018-01-10T05:25:07.516Z,13.07
2018-01-10T05:27:34.967Z,14.27
2018-01-10T05:30:02.404Z,12.33
2018-01-10T05:32:30.125Z,12.60
2018-01-10T05:34:57.527Z,12.73
2018-01-10T05:37:26.507Z,12.33
2018-01-10T05:39:53.927Z,12.00
2018-01-10T05:42:22.108Z,12.67
2018-01-10T05:44:50.191Z,12.53
2018-01-10T05:47:18.350Z,12.57
2018-01-10T05:49:45.776Z,12.67
2018-01-10T05:52:13.203Z,12.40
2018-01-10T05:54:40.625Z,11.37
2018-01-10T05:57:08.052Z,11.37
2018-01-10T05:59:35.471Z,12.53
2018-01-10T06:02:02.896Z,11.50
2018-01-10T06:04:30.315Z,11.97
2018-01-10T06:06:58.016Z,11.63
2018-01-10T06:09:26.179Z,11.23
2018-01-10T06:11:53.607Z,9.83
2018-01-10T06:14:22.338Z,10.90
2018-01-10T06:16:50.024Z,10.23
2018-01-10T06:19:17.415Z,10.50
2018-01-10T06:21:50.539Z,9.93
2018-01-10T06:24:25.912Z,11.40
2018-01-10T06:29:50.018Z,13.60
2018-01-10T06:35:17.289Z,13.87
2018-01-10T06:40:58.940Z,13.77
2018-01-10T06:43:27.130Z,14.07
2018-01-10T06:45:54.955Z,13.57
2018-01-10T06:48:22.382Z,13.63
2018-01-10T06:50:49.800Z,13.00
2018-01-10T06:53:18.738Z,12.87
2018-01-10T06:55:46.762Z,13.43
2018-01-10T06:58:14.959Z,12.63
2018-01-10T07:00:42.474Z,11.80
2018-01-10T07:03:09.903Z,11.20
2018-01-10T07:05:37.322Z,13.27
2018-01-10T07:08:04.747Z,11.30
2018-01-10T07:10:32.195Z,11.30
2018-01-10T07:13:00.028Z,11.10
2018-01-10T07:15:27.444Z,9.73
2018-01-10T07:17:55.685Z,9.77
2018-01-10T07:20:24.080Z,10.10
2018-01-10T07:22:51.927Z,8.77
2018-01-10T07:25:19.335Z,9.47
2018-01-10T07:27:46.770Z,9.70
2018-01-10T07:30:14.182Z,9.83
2018-01-10T07:32:41.615Z,10.10
2018-01-10T07:35:09.299Z,9.70
2018-01-10T07:37:36.706Z,10.10
2018-01-10T07:40:04.895Z,10.50
2018-01-10T07:42:33.088Z,11.40
2018-01-10T07:45:00.508Z,10.37
2018-01-10T07:47:28.326Z,10.57
2018-01-10T07:49:58.338Z,11.00
2018-01-10T07:52:28.464Z,12.23
2018-01-10T07:54:55.898Z,12.10
2018-01-10T07:57:24.104Z,12.60
2018-01-10T07:59:51.502Z,11.13
2018-01-10T08:02:20.543Z,10.43
2018-01-10T08:04:47.963Z,11.30
2018-01-10T08:07:17.351Z,11.80
2018-01-10T08:09:44.752Z,13.67
2018-01-10T08:12:12.172Z,14.13
2018-01-10T08:14:40.364Z,16.50
2018-01-10T08:17:07.791Z,15.23
2018-01-10T08:19:35.210Z,14.57
2018-01-10T08:22:03.047Z,15.20
2018-01-10T08:24:31.015Z,15.57
2018-01-10T08:26:58.428Z,16.50
2018-01-10T08:29:26.271Z,16.00
2018-01-10T08:31:53.700Z,16.60
2018-01-10T08:34:22.044Z,16.77
2018-01-10T08:36:56.044Z,24.00
2018-01-10T08:39:23.784Z,20.03
2018-01-10T08:41:51.210Z,23.80
2018-01-10T08:44:18.635Z,20.77
2018-01-10T08:46:54.334Z,20.13
2018-01-10T08:49:21.780Z,17.33
2018-01-10T08:51:49.200Z,16.80
2018-01-10T08:54:27.469Z,15.80
2018-01-10T08:56:55.454Z,11.97
2018-01-10T08:59:22.883Z,11.63
2018-01-10T09:01:50.618Z,10.73
2018-01-10T09:04:19.112Z,9.97
2018-01-10T09:06:48.467Z,9.93
2018-01-10T09:09:30.923Z,10.07
2018-01-10T09:12:04.543Z,10.87
2018-01-10T09:14:31.971Z,10.83
2018-01-10T09:17:02.155Z,10.77
2018-01-10T09:19:29.569Z,10.10
2018-01-10T09:21:56.983Z,9.90
2018-01-10T09:24:25.184Z,9.07
2018-01-10T09:26:52.639Z,8.87
2018-01-10T09:29:20.059Z,8.40
2018-01-10T09:31:47.478Z,8.10
2018-01-10T09:34:14.907Z,8.33
2018-01-10T09:36:42.323Z,8.70
2018-01-10T09:39:10.180Z,7.33
2018-01-10T09:41:38.142Z,7.60
2018-01-10T09:44:05.655Z,8.50
2018-01-10T09:46:33.075Z,8.47
2018-01-10T09:49:00.918Z,8.77
2018-01-10T09:51:28.336Z,9.20
2018-01-10T09:53:55.768Z,8.50
2018-01-10T09:56:23.182Z,9.20
2018-01-10T09:58:50.614Z,9.50
2018-01-10T10:01:18.039Z,9.30
2018-01-10T10:03:46.251Z,9.57
2018-01-10T10:06:14.115Z,9.73
2018-01-10T10:08:41.762Z,9.40
2018-01-10T10:11:09.188Z,9.83
2018-01-10T10:13:37.566Z,10.60
2018-01-10T10:16:04.995Z,10.10
2018-01-10T10:18:33.731Z,10.80
2018-01-10T10:21:01.919Z,10.57
2018-01-10T10:23:30.153Z,11.23
2018-01-10T10:25:57.847Z,10.37
2018-01-10T10:28:25.248Z,10.07
2018-01-10T10:30:52.671Z,10.60
2018-01-10T10:33:20.097Z,9.20
2018-01-10T10:35:47.519Z,9.00
2018-01-10T10:38:14.948Z,10.17
2018-01-10T10:40:42.372Z,10.80
2018-01-10T10:43:09.795Z,9.47
2018-01-10T10:45:37.285Z,8.23
2018-01-10T10:48:06.797Z,7.93
2018-01-10T10:50:34.198Z,9.07
2018-01-10T10:53:02.221Z,8.60
2018-01-10T10:55:30.407Z,9.23
2018-01-10T10:57:58.598Z,7.83
2018-01-10T11:00:27.932Z,8.53
2018-01-10T11:02:55.375Z,7.87
2018-01-10T11:05:22.799Z,7.60
2018-01-10T11:07:50.993Z,6.90
2018-01-10T11:10:20.914Z,6.90
2018-01-10T11:12:48.332Z,8.00
2018-01-10T11:15:16.520Z,6.53
2018-01-10T11:17:45.260Z,7.70
2018-01-10T11:20:12.683Z,6.80
2018-01-10T11:22:40.512Z,7.40
2018-01-10T11:25:07.934Z,6.53
2018-01-10T11:27:35.356Z,6.40
2018-01-10T11:30:02.784Z,6.93
2018-01-10T11:32:30.727Z,6.95
2018-01-10T11:34:58.171Z,6.93
2018-01-10T11:37:26.257Z,7.30
2018-01-10T11:39:53.663Z,6.82
2018-01-10T11:42:21.088Z,7.22
2018-01-10T11:44:48.519Z,7.53
2018-01-10T11:47:15.939Z,7.43
2018-01-10T11:49:43.367Z,7.20
2018-01-10T11:52:12.088Z,7.73
2018-01-10T11:54:40.249Z,7.80
2018-01-10T11:57:07.671Z,8.00
2018-01-10T11:59:35.514Z,8.10
2018-01-10T12:02:02.931Z,8.33
2018-01-10T12:04:30.350Z,8.23
2018-01-10T12:06:59.587Z,7.33
2018-01-10T12:09:27.016Z,7.40
2018-01-10T12:11:54.439Z,7.67
2018-01-10T12:14:21.862Z,7.47
2018-01-10T12:16:49.282Z,7.07
2018-01-10T12:19:16.708Z,7.47
2018-01-10T12:21:44.122Z,6.90
2018-01-10T12:24:11.553Z,6.50
2018-01-10T12:26:39.918Z,7.10
2018-01-10T12:29:07.346Z,6.60
2018-01-10T12:31:34.785Z,6.45
2018-01-10T12:34:02.197Z,7.85
2018-01-10T12:36:29.606Z,6.72
2018-01-10T12:38:57.041Z,6.90
2018-01-10T12:41:25.242Z,7.05
2018-01-10T12:43:52.634Z,6.83
2018-01-10T12:46:20.056Z,5.60
2018-01-10T12:48:47.480Z,5.50
2018-01-10T12:51:15.638Z,6.20
2018-01-10T12:53:44.006Z,6.10
2018-01-10T12:56:11.422Z,6.00
2018-01-10T12:58:38.849Z,5.90
2018-01-10T13:01:06.262Z,5.50
2018-01-10T13:03:33.686Z,6.33
2018-01-10T13:06:01.107Z,5.53
2018-01-10T13:08:29.299Z,5.60
2018-01-10T13:10:56.722Z,5.53
2018-01-10T13:13:24.933Z,5.13
2018-01-10T13:15:52.444Z,6.00
2018-01-10T13:18:19.860Z,5.47
2018-01-10T13:20:47.275Z,5.80
2018-01-10T13:23:15.455Z,4.97
2018-01-10T13:25:43.635Z,5.70
2018-01-10T13:28:11.875Z,5.37
2018-01-10T13:30:40.875Z,6.30
2018-01-10T13:33:08.294Z,5.60
2018-01-10T13:35:35.726Z,6.20
2018-01-10T13:38:03.905Z,6.30
2018-01-10T13:40:31.346Z,5.93
2018-01-10T13:42:59.535Z,6.17
2018-01-10T13:45:27.170Z,6.40
2018-01-10T13:47:54.615Z,6.23
2018-01-10T13:50:22.035Z,6.43
2018-01-10T13:52:49.451Z,6.50
2018-01-10T13:55:18.375Z,6.23
2018-01-10T13:57:45.802Z,6.43
2018-01-10T14:00:13.983Z,6.73
2018-01-10T14:02:41.956Z,7.00
2018-01-10T14:05:12.875Z,7.43
2018-01-10T14:07:41.057Z,6.80
2018-01-10T14:10:09.244Z,7.23
2018-01-10T14:12:36.656Z,6.30
2018-01-10T14:15:04.079Z,6.70
2018-01-10T14:17:31.486Z,6.73
2018-01-10T14:19:59.683Z,6.57
2018-01-10T14:22:27.102Z,7.23
2018-01-10T14:24:55.186Z,7.73
2018-01-10T14:27:22.579Z,7.60
2018-01-10T14:29:49.999Z,6.70
2018-01-10T14:32:17.416Z,7.07
2018-01-10T14:34:44.837Z,7.23
2018-01-10T14:37:12.683Z,6.73
2018-01-10T14:39:40.111Z,8.17
2018-01-10T14:42:07.527Z,7.13
2018-01-10T14:44:35.759Z,7.67
2018-01-10T14:47:03.183Z,6.83
2018-01-10T14:49:30.602Z,7.67
2018-01-10T14:51:58.023Z,8.53
2018-01-10T14:54:25.958Z,7.73
2018-01-10T14:56:53.378Z,7.13
2018-01-10T14:59:21.571Z,6.90
2018-01-10T15:01:48.988Z,6.83
2018-01-10T15:04:16.404Z,7.23
2018-01-10T15:06:43.835Z,6.90
2018-01-10T15:09:11.259Z,6.83
2018-01-10T15:11:39.082Z,6.90
2018-01-10T15:14:06.494Z,6.80
2018-01-10T15:16:34.679Z,6.43
2018-01-10T15:19:03.420Z,6.40
2018-01-10T15:21:31.248Z,5.67
2018-01-10T15:23:59.248Z,5.63
2018-01-10T15:26:26.668Z,5.93
2018-01-10T15:28:54.635Z,6.20
2018-01-10T15:31:22.063Z,5.97
2018-01-10T15:33:51.191Z,6.47
2018-01-10T15:36:18.616Z,6.90
2018-01-10T15:38:46.430Z,6.23
2018-01-10T15:41:13.850Z,6.37
2018-01-10T15:43:42.377Z,6.07
2018-01-10T15:46:10.522Z,6.43
2018-01-10T15:48:37.935Z,5.43
2018-01-10T15:51:05.355Z,5.80
2018-01-10T15:53:39.163Z,5.50
2018-01-10T15:56:06.582Z,6.17
2018-01-10T15:58:34.767Z,6.57
2018-01-10T16:01:02.185Z,6.20
2018-01-10T16:03:29.603Z,6.20
2018-01-10T16:05:57.026Z,5.87
2018-01-10T16:08:25.215Z,6.70
2018-01-10T16:10:52.639Z,6.80
2018-01-10T16:13:20.059Z,6.37
2018-01-10T16:15:48.004Z,6.87
2018-01-10T16:18:15.419Z,6.90
2018-01-10T16:20:42.834Z,6.40
2018-01-10T16:23:10.255Z,7.33
2018-01-10T16:25:38.439Z,7.13
2018-01-10T16:28:06.787Z,7.00
2018-01-10T16:30:34.248Z,6.80
2018-01-10T16:33:01.664Z,7.10
2018-01-10T16:35:29.659Z,8.20
2018-01-10T16:37:57.079Z,8.60
2018-01-10T16:40:29.905Z,8.70
2018-01-10T16:42:57.315Z,8.77
2018-01-10T16:45:24.742Z,9.13
2018-01-10T16:47:52.923Z,8.23
2018-01-10T16:50:26.683Z,8.37
2018-01-10T16:52:54.198Z,7.73
2018-01-10T16:55:22.174Z,8.23
2018-01-10T16:57:50.495Z,8.87
2018-01-10T17:00:17.916Z,7.50
2018-01-10T17:02:45.608Z,8.40
2018-01-10T17:05:14.003Z,6.73
2018-01-10T17:07:41.419Z,6.70
2018-01-10T17:10:08.958Z,5.53
2018-01-10T17:12:37.348Z,5.60
2018-01-10T17:15:05.516Z,5.20
2018-01-10T17:17:33.341Z,4.97
2018-01-10T17:20:00.759Z,4.93
2018-01-10T17:22:29.172Z,4.63
2018-01-10T17:24:56.595Z,4.30
2018-01-10T17:27:24.016Z,4.07
2018-01-10T17:29:51.836Z,4.73
2018-01-10T17:32:20.132Z,4.07
2018-01-10T17:34:47.543Z,4.37
2018-01-10T17:37:14.966Z,4.00
2018-01-10T17:39:43.865Z,4.33
2018-01-10T17:42:13.092Z,4.33
2018-01-10T17:44:40.517Z,3.80
2018-01-10T17:47:09.224Z,4.17
2018-01-10T17:49:37.052Z,4.03
2018-01-10T17:52:04.463Z,4.63
2018-01-10T17:54:31.879Z,4.40
2018-01-10T17:57:00.594Z,4.80
2018-01-10T17:59:28.539Z,4.07
2018-01-10T18:01:55.955Z,3.70
2018-01-10T18:04:23.380Z,3.73
2018-01-10T18:06:50.792Z,4.47
2018-01-10T18:09:18.973Z,4.80
2018-01-10T18:11:47.499Z,4.93
2018-01-10T18:14:14.917Z,5.23
2018-01-10T18:16:43.099Z,4.87
2018-01-10T18:19:10.909Z,5.07
2018-01-10T18:21:38.327Z,5.00
2018-01-10T18:24:05.742Z,5.30
2018-01-10T18:26:33.162Z,4.90
2018-01-10T18:29:00.575Z,4.33
2018-01-10T18:31:29.172Z,3.93
2018-01-10T18:33:57.107Z,3.40
2018-01-10T18:36:24.528Z,3.07
2018-01-10T18:38:51.944Z,2.63
2018-01-10T18:41:21.129Z,2.73
2018-01-10T18:43:48.541Z,2.10
2018-01-10T18:46:16.490Z,2.10
2018-01-10T18:48:44.343Z,2.30
2018-01-10T18:51:11.770Z,2.10
2018-01-10T18:53:41.165Z,1.50
2018-01-10T18:56:08.583Z,1.93
2018-01-10T18:58:35.987Z,1.93
2018-01-10T19:01:03.946Z,2.07
2018-01-10T19:03:31.355Z,2.00
2018-01-10T19:05:59.315Z,1.67
2018-01-10T19:08:26.736Z,2.20
2018-01-10T19:10:54.150Z,1.60
2018-01-10T19:13:21.566Z,2.00
2018-01-10T19:15:50.434Z,1.57
2018-01-10T19:18:17.818Z,1.57
2018-01-10T19:20:46.012Z,1.90
2018-01-10T19:23:13.727Z,2.30
2018-01-10T19:25:41.171Z,1.83
2018-01-10T19:28:10.488Z,1.87
2018-01-10T19:30:37.891Z,1.90
2018-01-10T19:33:05.302Z,2.40
2018-01-10T19:35:32.756Z,2.10
2018-01-10T19:38:00.195Z,2.43
2018-01-10T19:40:28.032Z,1.93
2018-01-10T19:42:55.444Z,2.33
2018-01-10T19:45:22.886Z,2.07
2018-01-10T19:47:50.328Z,2.13
2018-01-10T19:50:18.736Z,1.80
2018-01-10T19:52:46.155Z,2.30
2018-01-10T19:55:13.571Z,2.40
2018-01-10T19:57:41.754Z,2.37
2018-01-10T20:00:09.176Z,2.20
2018-01-10T20:02:36.601Z,2.17
2018-01-10T20:05:11.896Z,2.00
2018-01-10T20:07:40.104Z,2.20
2018-01-10T20:10:08.114Z,2.13
2018-01-10T20:12:38.396Z,2.27
2018-01-10T20:15:06.210Z,2.30
2018-01-10T20:17:33.634Z,2.67
2018-01-10T20:20:04.360Z,2.67
2018-01-10T20:22:31.774Z,2.70
2018-01-10T20:24:59.959Z,2.80
2018-01-10T20:27:29.795Z,2.47
2018-01-10T20:29:57.227Z,3.30
2018-01-10T20:32:25.415Z,3.03
2018-01-10T20:34:54.768Z,3.10
2018-01-10T20:37:22.203Z,3.57
2018-01-10T20:39:49.619Z,3.50
2018-01-10T20:42:17.064Z,4.07
2018-01-10T20:44:50.267Z,4.60
2018-01-10T20:47:22.026Z,3.87
2018-01-10T20:49:50.559Z,4.27
2018-01-10T20:52:22.655Z,3.93
2018-01-10T20:54:52.774Z,4.70
2018-01-10T20:57:20.984Z,4.90
2018-01-10T20:59:48.411Z,4.50
2018-01-10T21:02:16.962Z,4.87
2018-01-10T21:04:44.353Z,4.87
2018-01-10T21:07:12.556Z,4.90
2018-01-10T21:09:43.019Z,5.33
2018-01-10T21:12:10.494Z,6.10
2018-01-10T21:14:37.896Z,6.20
2018-01-10T21:17:05.323Z,5.90
2018-01-10T21:19:33.534Z,6.83
2018-01-10T21:22:00.955Z,7.20
2018-01-10T21:24:29.699Z,7.17
2018-01-10T21:26:58.100Z,7.37
2018-01-10T21:29:25.528Z,8.13
2018-01-10T21:31:52.971Z,7.87
2018-01-10T21:34:20.448Z,9.90
2018-01-10T21:36:48.279Z,11.13
2018-01-10T21:39:15.711Z,11.47
2018-01-10T21:41:43.906Z,12.03
2018-01-10T21:44:11.351Z,12.63
2018-01-10T21:46:39.544Z,14.23
2018-01-10T21:49:07.120Z,14.50
2018-01-10T21:51:34.540Z,14.40
2018-01-10T21:54:02.733Z,14.37
2018-01-10T21:56:30.145Z,14.53
2018-01-10T21:58:57.595Z,15.67
2018-01-10T22:01:25.620Z,16.03
2018-01-10T22:03:53.040Z,16.37
2018-01-10T22:06:20.867Z,17.43
2018-01-10T22:08:49.108Z,15.83
2018-01-10T22:11:17.198Z,17.10
2018-01-10T22:13:45.357Z,17.73
2018-01-10T22:16:12.786Z,18.60
2018-01-10T22:18:40.204Z,18.17
2018-01-10T22:21:07.634Z,18.53
2018-01-10T22:23:35.051Z,17.43
2018-01-10T22:26:02.483Z,17.80
2018-01-10T22:28:29.903Z,17.23
2018-01-10T22:30:57.328Z,17.03
2018-01-10T22:33:24.747Z,17.63
2018-01-10T22:35:52.171Z,17.90
2018-01-10T22:38:22.116Z,17.43
2018-01-10T22:40:49.542Z,18.07
2018-01-10T22:43:16.965Z,17.23
2018-01-10T22:45:45.091Z,17.73
2018-01-10T22:48:12.486Z,18.33
2018-01-10T22:50:39.918Z,18.40
2018-01-10T22:53:07.330Z,16.97
2018-01-10T22:55:34.781Z,17.03
2018-01-10T22:58:02.975Z,16.50
2018-01-10T23:00:31.161Z,15.47
2018-01-10T23:02:58.575Z,17.50
2018-01-10T23:05:26.779Z,16.17
2018-01-10T23:07:55.357Z,18.23
2018-01-10T23:10:22.778Z,18.93
2018-01-10T23:12:50.206Z,19.10
2018-01-10T23:15:18.286Z,18.03
2018-01-10T23:17:45.695Z,18.57
2018-01-10T23:20:13.114Z,19.53
2018-01-10T23:22:40.541Z,18.30
2018-01-10T23:25:07.955Z,20.13
2018-01-10T23:27:36.146Z,20.57
2018-01-10T23:30:03.776Z,20.30
2018-01-10T23:32:31.758Z,18.53
2018-01-10T23:34:59.967Z,18.83
2018-01-10T23:37:28.683Z,18.33
2018-01-10T23:39:56.112Z,16.53
2018-01-10T23:42:23.543Z,15.57
2018-01-10T23:44:53.011Z,15.50
2018-01-10T23:47:20.958Z,13.67
2018-01-10T23:49:48.950Z,15.10
2018-01-10T23:52:33.140Z,15.00
2018-01-10T23:55:00.585Z,15.13
2018-01-10T23:57:28.778Z,14.93
2018-01-10T23:59:56.207Z,15.37
